Time;durP1;ratioP1;P1;durP2;ratioP2;P2;SDS_P1;SDS_P2;PMS_P1;PMS_P2;Temp;Humidity;BMP_temperature;BMP_pressure;BME280_temperature;BME280_humidity;BME280_pressure;Samples;Min_cycle;Max_cycle;Signal;HPM_P1;HPM_P2
2023/07/20 00:00:47;;;;;;;15.23;5.57;;;;;;;;;;6299291;28;20064;-77
2023/07/20 00:03:54;;;;;;;12.05;5.50;;;;;;;;;;6295836;28;20053;-77
2023/07/20 00:06:55;;;;;;;14.70;4.95;;;;;;;;;;6298182;28;20072;-78
2023/07/20 00:09:58;;;;;;;10.00;4.63;;;;;;;;;;6299992;28;20130;-79
2023/07/20 00:13:00;;;;;;;12.75;4.47;;;;;;;;;;6299712;28;20064;-79
2023/07/20 00:16:01;;;;;;;9.85;4.25;;;;;;;;;;6299719;28;20063;-79
2023/07/20 00:19:03;;;;;;;9.15;4.18;;;;;;;;;;6298647;28;20052;-79
2023/07/20 00:22:05;;;;;;;10.82;4.35;;;;;;;;;;6299536;28;20105;-79
2023/07/20 00:25:08;;;;;;;10.25;4.00;;;;;;;;;;6296928;28;20336;-80
2023/07/20 00:28:10;;;;;;;9.43;4.05;;;;;;;;;;6299993;28;20340;-78
2023/07/20 00:31:11;;;;;;;10.13;4.28;;;;;;;;;;6299154;28;20258;-80
2023/07/20 00:34:12;;;;;;;12.82;5.47;;;;;;;;;;6299097;28;20094;-77
2023/07/20 00:37:14;;;;;;;7.03;4.43;;;;;;;;;;6298183;28;20144;-79
2023/07/20 00:40:17;;;;;;;9.93;4.70;;;;;;;;;;6301814;28;20236;-79
2023/07/20 00:43:19;;;;;;;8.27;4.32;;;;;;;;;;6298976;28;20052;-80
2023/07/20 00:46:22;;;;;;;8.45;4.85;;;;;;;;;;6299144;28;20096;-79
2023/07/20 00:49:24;;;;;;;8.07;4.38;;;;;;;;;;6298692;28;20044;-79
2023/07/20 00:52:26;;;;;;;9.13;5.00;;;;;;;;;;6300639;28;20115;-79
2023/07/20 00:55:29;;;;;;;8.07;4.40;;;;;;;;;;6296739;28;20259;-79
2023/07/20 00:58:31;;;;;;;6.38;4.30;;;;;;;;;;6300350;28;20057;-79
2023/07/20 01:01:32;;;;;;;8.52;4.20;;;;;;;;;;6296609;28;20056;-79
2023/07/20 01:04:34;;;;;;;10.70;4.43;;;;;;;;;;6300294;28;20041;-79
2023/07/20 01:07:36;;;;;;;10.32;4.78;;;;;;;;;;6300228;28;20055;-80
2023/07/20 01:10:40;;;;;;;9.88;4.10;;;;;;;;;;6301108;28;20548;-79
2023/07/20 01:13:42;;;;;;;10.43;4.53;;;;;;;;;;6299403;28;20045;-80
2023/07/20 01:16:44;;;;;;;8.43;4.55;;;;;;;;;;6298209;28;20079;-77
2023/07/20 01:19:45;;;;;;;10.00;5.13;;;;;;;;;;6299728;28;20411;-79
2023/07/20 01:23:13;;;;;;;10.13;4.47;;;;;;;;;;6300682;28;20071;-79
2023/07/20 01:26:29;;;;;;;7.57;4.05;;;;;;;;;;6297771;28;20099;-79
2023/07/20 01:29:38;;;;;;;7.03;4.30;;;;;;;;;;6300177;28;20056;-79
2023/07/20 01:32:42;;;;;;;6.70;4.30;;;;;;;;;;6298637;28;20368;-79
2023/07/20 01:35:44;;;;;;;13.52;4.78;;;;;;;;;;6300859;28;20134;-79
2023/07/20 01:38:46;;;;;;;9.57;4.50;;;;;;;;;;6301622;28;20367;-77
2023/07/20 01:41:47;;;;;;;11.60;5.15;;;;;;;;;;6302539;28;20478;-79
2023/07/20 01:44:49;;;;;;;9.70;4.50;;;;;;;;;;6303396;28;20055;-78
2023/07/20 01:47:51;;;;;;;10.82;4.88;;;;;;;;;;6302433;28;20052;-77
2023/07/20 01:50:53;;;;;;;9.57;4.80;;;;;;;;;;6302463;28;20052;-78
2023/07/20 01:53:54;;;;;;;12.68;5.70;;;;;;;;;;6305017;28;20059;-78
2023/07/20 01:56:56;;;;;;;9.13;5.85;;;;;;;;;;6302533;28;20052;-77
2023/07/20 01:59:57;;;;;;;10.98;5.35;;;;;;;;;;6304584;28;20102;-77
2023/07/20 02:03:00;;;;;;;11.80;5.47;;;;;;;;;;6303291;28;20059;-77
2023/07/20 02:06:02;;;;;;;14.15;5.93;;;;;;;;;;6302996;28;20385;-77
2023/07/20 02:09:03;;;;;;;12.05;5.70;;;;;;;;;;6302538;28;20170;-77
2023/07/20 02:12:05;;;;;;;8.70;5.57;;;;;;;;;;6301944;28;20060;-78
2023/07/20 02:15:07;;;;;;;10.63;5.68;;;;;;;;;;6302316;28;20044;-77
2023/07/20 02:18:10;;;;;;;11.50;5.75;;;;;;;;;;6304331;28;20063;-78
2023/07/20 02:21:11;;;;;;;12.38;6.20;;;;;;;;;;6307340;28;20048;-79
2023/07/20 02:24:13;;;;;;;9.50;5.90;;;;;;;;;;6305729;28;20275;-79
2023/07/20 02:27:14;;;;;;;9.05;6.00;;;;;;;;;;6301528;28;20045;-78
2023/07/20 02:30:16;;;;;;;10.38;6.18;;;;;;;;;;6301791;28;20407;-78
2023/07/20 02:33:19;;;;;;;9.90;6.25;;;;;;;;;;6304294;28;20044;-79
2023/07/20 02:36:21;;;;;;;13.45;6.97;;;;;;;;;;6300893;28;20274;-79
2023/07/20 02:39:22;;;;;;;12.65;6.95;;;;;;;;;;6301583;28;20052;-79
2023/07/20 02:42:25;;;;;;;10.73;6.85;;;;;;;;;;6301960;28;20056;-79
2023/07/20 02:45:27;;;;;;;12.35;8.07;;;;;;;;;;6300407;28;20055;-79
2023/07/20 02:48:30;;;;;;;11.32;6.82;;;;;;;;;;6301199;28;20053;-78
2023/07/20 02:51:31;;;;;;;9.95;7.10;;;;;;;;;;6300686;28;20130;-78
2023/07/20 02:54:32;;;;;;;12.60;6.80;;;;;;;;;;6299545;28;20059;-78
2023/07/20 02:57:34;;;;;;;11.48;7.63;;;;;;;;;;6301771;28;20210;-78
2023/07/20 03:00:35;;;;;;;12.30;7.03;;;;;;;;;;6301051;28;20060;-77
2023/07/20 03:03:38;;;;;;;12.18;7.10;;;;;;;;;;6301923;28;20079;-77
2023/07/20 03:06:40;;;;;;;10.75;7.00;;;;;;;;;;6300851;28;20090;-78
2023/07/20 03:09:43;;;;;;;12.23;7.38;;;;;;;;;;6299388;28;20049;-80
2023/07/20 03:12:44;;;;;;;15.73;8.20;;;;;;;;;;6299761;28;20078;-76
2023/07/20 03:15:46;;;;;;;13.55;7.45;;;;;;;;;;6301395;28;20071;-77
2023/07/20 03:18:49;;;;;;;10.85;7.40;;;;;;;;;;6299596;28;20336;-78
2023/07/20 03:21:50;;;;;;;13.27;7.30;;;;;;;;;;6300413;28;20055;-78
2023/07/20 03:24:52;;;;;;;11.30;7.07;;;;;;;;;;6300472;28;20071;-80
2023/07/20 03:27:53;;;;;;;11.68;6.57;;;;;;;;;;6300174;28;20117;-78
2023/07/20 03:30:55;;;;;;;11.52;6.53;;;;;;;;;;6299365;28;20097;-77
2023/07/20 03:33:58;;;;;;;9.75;7.03;;;;;;;;;;6303002;28;20048;-77
2023/07/20 03:37:00;;;;;;;12.05;7.18;;;;;;;;;;6299875;28;20372;-76
2023/07/20 03:40:02;;;;;;;12.65;7.50;;;;;;;;;;6297990;28;20336;-77
2023/07/20 03:43:04;;;;;;;11.15;6.95;;;;;;;;;;6301130;28;20151;-79
2023/07/20 03:46:06;;;;;;;13.57;7.18;;;;;;;;;;6298420;28;20060;-78
2023/07/20 03:49:10;;;;;;;10.55;7.72;;;;;;;;;;6297935;28;20205;-77
2023/07/20 03:52:11;;;;;;;;;;;;;;;;;;6298419;28;20102;-77
2023/07/20 03:55:12;;;;;;;15.20;7.57;;;;;;;;;;6300194;28;19931;-79
2023/07/20 03:58:14;;;;;;;12.43;7.68;;;;;;;;;;6300551;28;20044;-79
2023/07/20 04:01:16;;;;;;;10.30;6.70;;;;;;;;;;6298651;28;20090;-79
2023/07/20 04:04:19;;;;;;;11.27;7.20;;;;;;;;;;6301415;28;20056;-79
2023/07/20 04:07:20;;;;;;;14.57;7.47;;;;;;;;;;6299792;28;20044;-79
2023/07/20 04:10:22;;;;;;;10.75;7.03;;;;;;;;;;6300719;28;20056;-78
2023/07/20 04:13:23;;;;;;;11.80;7.80;;;;;;;;;;6300087;28;20052;-78
2023/07/20 04:16:26;;;;;;;11.68;7.70;;;;;;;;;;6300948;28;20067;-78
2023/07/20 04:19:28;;;;;;;13.40;7.60;;;;;;;;;;6298173;28;20049;-78
2023/07/20 04:22:30;;;;;;;11.73;7.45;;;;;;;;;;6299137;28;20067;-78
2023/07/20 04:25:33;;;;;;;11.70;7.93;;;;;;;;;;6297927;28;20049;-78
2023/07/20 04:28:34;;;;;;;;;;;;;;;;;;6298697;28;20052;-77
2023/07/20 04:31:36;;;;;;;12.20;7.57;;;;;;;;;;6299274;28;20143;-78
2023/07/20 04:34:39;;;;;;;12.48;7.95;;;;;;;;;;6301539;28;20333;-78
2023/07/20 04:37:45;;;;;;;;;;;;;;;;;;6299699;28;20097;-78
2023/07/20 04:40:47;;;;;;;12.43;7.90;;;;;;;;;;6298567;28;19931;-79
2023/07/20 04:43:48;;;;;;;14.80;7.72;;;;;;;;;;6299091;28;20040;-79
2023/07/20 04:46:50;;;;;;;11.73;7.70;;;;;;;;;;6296792;28;20060;-78
2023/07/20 04:49:52;;;;;;;11.48;7.50;;;;;;;;;;6300621;28;20052;-79
2023/07/20 04:52:54;;;;;;;14.45;7.15;;;;;;;;;;6296422;28;20063;-78
2023/07/20 04:55:55;;;;;;;11.02;6.72;;;;;;;;;;6298712;28;20052;-80
2023/07/20 04:58:57;;;;;;;9.75;6.95;;;;;;;;;;6300512;28;20328;-78
2023/07/20 05:01:58;;;;;;;11.10;7.28;;;;;;;;;;6297638;28;20049;-79
2023/07/20 05:05:01;;;;;;;11.25;6.63;;;;;;;;;;6299687;28;20044;-78
2023/07/20 05:08:04;;;;;;;9.55;5.90;;;;;;;;;;6299389;28;20048;-78
2023/07/20 05:11:07;;;;;;;9.50;6.22;;;;;;;;;;6300190;28;20049;-78
2023/07/20 05:14:08;;;;;;;10.90;6.83;;;;;;;;;;6303063;28;20229;-78
2023/07/20 05:17:10;;;;;;;10.32;6.45;;;;;;;;;;6303035;28;20252;-78
2023/07/20 05:20:13;;;;;;;11.02;7.03;;;;;;;;;;6304895;28;20058;-79
2023/07/20 05:23:14;;;;;;;7.70;5.30;;;;;;;;;;6302491;28;20123;-79
2023/07/20 05:26:16;;;;;;;10.05;5.70;;;;;;;;;;6302994;28;20080;-79
2023/07/20 05:29:17;;;;;;;8.88;5.30;;;;;;;;;;6303616;28;20040;-79
2023/07/20 05:32:18;;;;;;;10.63;6.30;;;;;;;;;;6301437;28;20098;-79
2023/07/20 05:35:22;;;;;;;8.10;5.30;;;;;;;;;;6304985;28;20390;-78
2023/07/20 05:38:23;;;;;;;11.40;6.45;;;;;;;;;;6303908;28;20076;-78
2023/07/20 05:41:25;;;;;;;9.40;5.63;;;;;;;;;;6303722;28;20064;-79
2023/07/20 05:44:26;;;;;;;10.43;5.93;;;;;;;;;;6303074;28;20064;-79
2023/07/20 05:47:29;;;;;;;9.93;6.90;;;;;;;;;;6301669;28;20110;-79
2023/07/20 05:50:31;;;;;;;12.15;6.70;;;;;;;;;;6302854;28;20067;-78
2023/07/20 05:53:33;;;;;;;12.75;6.28;;;;;;;;;;6302820;28;20052;-79
2023/07/20 05:56:34;;;;;;;14.02;6.38;;;;;;;;;;6300989;28;20052;-79
2023/07/20 05:59:36;;;;;;;11.98;5.80;;;;;;;;;;6302624;28;20044;-77
2023/07/20 06:02:37;;;;;;;11.73;7.57;;;;;;;;;;6302027;28;20060;-77
2023/07/20 06:05:40;;;;;;;12.98;6.45;;;;;;;;;;6302366;28;20244;-76
2023/07/20 06:08:41;;;;;;;11.20;6.28;;;;;;;;;;6300183;28;20055;-76
2023/07/20 06:11:43;;;;;;;13.40;8.23;;;;;;;;;;6304019;28;20064;-75
2023/07/20 06:14:44;;;;;;;13.00;7.35;;;;;;;;;;6304527;28;20283;-76
2023/07/20 06:17:46;;;;;;;12.77;7.85;;;;;;;;;;6300147;28;20102;-76
2023/07/20 06:20:51;;;;;;;14.05;7.05;;;;;;;;;;6302332;28;20079;-76
2023/07/20 06:23:53;;;;;;;10.70;7.07;;;;;;;;;;6301968;28;20098;-76
2023/07/20 06:26:54;;;;;;;11.52;6.93;;;;;;;;;;6302448;28;20307;-75
2023/07/20 06:29:56;;;;;;;10.80;6.97;;;;;;;;;;6301831;28;20090;-76
2023/07/20 06:32:57;;;;;;;16.23;7.32;;;;;;;;;;6302311;28;20096;-76
2023/07/20 06:36:00;;;;;;;13.60;6.95;;;;;;;;;;6303320;28;20056;-77
2023/07/20 06:39:02;;;;;;;11.98;7.20;;;;;;;;;;6302177;28;20056;-76
2023/07/20 06:42:04;;;;;;;11.50;6.13;;;;;;;;;;6303021;28;20052;-77
2023/07/20 06:45:06;;;;;;;9.32;6.53;;;;;;;;;;6302627;28;20098;-76
2023/07/20 06:48:07;;;;;;;10.73;6.07;;;;;;;;;;6300576;28;20048;-76
2023/07/20 06:51:10;;;;;;;11.07;6.90;;;;;;;;;;6301693;28;20113;-76
2023/07/20 06:54:12;;;;;;;12.02;6.50;;;;;;;;;;6301379;28;20048;-76
2023/07/20 06:57:13;;;;;;;11.07;6.20;;;;;;;;;;6301204;28;20068;-76
2023/07/20 07:00:15;;;;;;;12.32;7.13;;;;;;;;;;6301597;28;20163;-77
2023/07/20 07:03:16;;;;;;;14.57;6.90;;;;;;;;;;6300095;28;20145;-77
2023/07/20 07:06:21;;;;;;;13.05;6.90;;;;;;;;;;6299187;28;20095;-74
2023/07/20 07:09:22;;;;;;;13.65;6.95;;;;;;;;;;6300820;28;20229;-75
2023/07/20 07:12:23;;;;;;;14.73;6.85;;;;;;;;;;6300833;28;20363;-77
2023/07/20 07:15:25;;;;;;;12.13;7.55;;;;;;;;;;6301098;28;20347;-76
2023/07/20 07:18:27;;;;;;;15.98;7.78;;;;;;;;;;6301524;28;20056;-76
2023/07/20 07:21:29;;;;;;;13.45;8.50;;;;;;;;;;6300633;28;20102;-76
2023/07/20 07:24:33;;;;;;;12.30;7.80;;;;;;;;;;6300220;28;20364;-77
2023/07/20 07:27:35;;;;;;;14.85;6.95;;;;;;;;;;6298596;28;20048;-76
2023/07/20 07:30:37;;;;;;;10.13;6.22;;;;;;;;;;6300015;28;20068;-77
2023/07/20 07:33:38;;;;;;;19.20;7.35;;;;;;;;;;6302170;28;20052;-75
2023/07/20 07:36:41;;;;;;;11.35;6.68;;;;;;;;;;6300064;28;20062;-76
2023/07/20 07:39:42;;;;;;;12.25;5.88;;;;;;;;;;6301369;28;20056;-76
2023/07/20 07:42:44;;;;;;;12.80;6.70;;;;;;;;;;6299737;28;20064;-74
2023/07/20 07:45:45;;;;;;;21.10;8.00;;;;;;;;;;6299796;28;20052;-74
2023/07/20 07:48:47;;;;;;;14.13;6.20;;;;;;;;;;6299670;28;20364;-77
2023/07/20 07:51:51;;;;;;;8.77;5.53;;;;;;;;;;6300133;28;20143;-76
2023/07/20 07:54:52;;;;;;;16.40;7.35;;;;;;;;;;6300440;28;20072;-76
2023/07/20 07:57:54;;;;;;;10.73;5.70;;;;;;;;;;6299263;28;20048;-76
2023/07/20 08:00:55;;;;;;;10.65;6.45;;;;;;;;;;6300311;28;20316;-76
2023/07/20 08:03:57;;;;;;;11.35;6.95;;;;;;;;;;6301224;28;20123;-74
2023/07/20 08:07:00;;;;;;;15.73;6.53;;;;;;;;;;6298403;28;20094;-76
2023/07/20 08:10:01;;;;;;;11.43;6.95;;;;;;;;;;6300003;28;20055;-76
2023/07/20 08:13:03;;;;;;;11.05;5.65;;;;;;;;;;6299929;28;20044;-77
2023/07/20 08:16:04;;;;;;;12.65;6.13;;;;;;;;;;6292011;28;20060;-78
2023/07/20 08:19:06;;;;;;;15.15;6.82;;;;;;;;;;6296892;28;20052;-78
2023/07/20 08:22:09;;;;;;;12.02;6.18;;;;;;;;;;6299536;28;20052;-78
2023/07/20 08:25:10;;;;;;;;;;;;;;;;;;6300472;28;20040;-77
2023/07/20 08:28:13;;;;;;;10.75;6.43;;;;;;;;;;6294773;28;20100;-78
2023/07/20 08:31:14;;;;;;;11.20;6.10;;;;;;;;;;6298020;28;20143;-77
2023/07/20 08:34:15;;;;;;;11.63;5.65;;;;;;;;;;6300498;28;20512;-77
2023/07/20 08:37:18;;;;;;;10.48;5.40;;;;;;;;;;6295642;28;20332;-79
2023/07/20 08:40:20;;;;;;;13.27;4.97;;;;;;;;;;6300076;28;20101;-78
2023/07/20 08:43:23;;;;;;;11.70;6.00;;;;;;;;;;6298978;28;20059;-78
2023/07/20 08:46:27;;;;;;;10.55;5.80;;;;;;;;;;6300650;28;20044;-76
2023/07/20 08:49:29;;;;;;;12.13;5.90;;;;;;;;;;6302626;28;20090;-78
2023/07/20 08:52:34;;;;;;;14.35;6.20;;;;;;;;;;6302666;28;20252;-78
2023/07/20 08:55:36;;;;;;;15.27;5.57;;;;;;;;;;6301187;28;20111;-77
2023/07/20 08:58:38;;;;;;;11.57;5.03;;;;;;;;;;6301402;28;20809;-77
2023/07/20 09:01:40;;;;;;;13.82;5.65;;;;;;;;;;6302547;28;20123;-77
2023/07/20 09:04:43;;;;;;;11.77;5.57;;;;;;;;;;6299255;28;20143;-75
2023/07/20 09:07:45;;;;;;;11.77;6.43;;;;;;;;;;6305010;28;20334;-77
2023/07/20 09:10:47;;;;;;;10.27;6.22;;;;;;;;;;6303822;28;20070;-76
2023/07/20 09:13:48;;;;;;;12.43;7.07;;;;;;;;;;6304201;28;20071;-78
2023/07/20 09:16:50;;;;;;;13.02;7.65;;;;;;;;;;6300275;28;20056;-77
2023/07/20 09:19:51;;;;;;;12.23;6.63;;;;;;;;;;6301681;28;20064;-77
2023/07/20 09:22:54;;;;;;;11.10;5.90;;;;;;;;;;6301237;28;20052;-78
2023/07/20 09:25:58;;;;;;;13.85;7.40;;;;;;;;;;6303324;28;20156;-81
2023/07/20 09:28:59;;;;;;;9.88;6.43;;;;;;;;;;6301194;28;20286;-79
2023/07/20 09:32:01;;;;;;;14.68;6.75;;;;;;;;;;6301170;28;20256;-80
2023/07/20 09:35:03;;;;;;;16.10;7.35;;;;;;;;;;6301612;28;20052;-77
2023/07/20 09:38:06;;;;;;;11.37;6.20;;;;;;;;;;6302340;28;20052;-78
2023/07/20 09:41:08;;;;;;;12.57;6.28;;;;;;;;;;6302461;28;21469;-79
2023/07/20 09:44:11;;;;;;;10.00;5.93;;;;;;;;;;6303340;28;20068;-79
2023/07/20 09:47:12;;;;;;;7.95;5.20;;;;;;;;;;6300174;28;20307;-78
2023/07/20 09:50:14;;;;;;;12.80;5.80;;;;;;;;;;6300436;28;20056;-79
2023/07/20 09:53:17;;;;;;;13.98;6.72;;;;;;;;;;6301339;28;20057;-80
2023/07/20 09:56:22;;;;;;;15.38;7.47;;;;;;;;;;6303384;28;20045;-79
2023/07/20 09:59:23;;;;;;;11.70;5.97;;;;;;;;;;6301231;28;20068;-79
2023/07/20 10:02:26;;;;;;;14.90;5.80;;;;;;;;;;6302978;28;20044;-79
2023/07/20 10:05:28;;;;;;;10.25;6.10;;;;;;;;;;6301926;28;20052;-81
2023/07/20 10:08:32;;;;;;;11.70;6.55;;;;;;;;;;6300170;28;20380;-79
2023/07/20 10:11:36;;;;;;;14.00;6.20;;;;;;;;;;6300305;28;20529;-79
2023/07/20 10:14:41;;;;;;;12.68;5.53;;;;;;;;;;6303074;28;20044;-79
2023/07/20 10:17:49;;;;;;;11.40;5.72;;;;;;;;;;6300487;28;20060;-79
2023/07/20 10:20:52;;;;;;;14.40;6.00;;;;;;;;;;6305452;28;20116;-79
2023/07/20 10:23:55;;;;;;;9.98;6.10;;;;;;;;;;6308803;28;20244;-80
2023/07/20 10:26:57;;;;;;;11.32;5.70;;;;;;;;;;6305762;28;20210;-78
2023/07/20 10:30:01;;;;;;;13.82;6.43;;;;;;;;;;6301088;28;20116;-79
2023/07/20 10:33:03;;;;;;;10.75;5.53;;;;;;;;;;6300052;28;20059;-80
2023/07/20 10:36:06;;;;;;;7.65;5.25;;;;;;;;;;6300643;28;20337;-79
2023/07/20 10:39:14;;;;;;;9.30;5.05;;;;;;;;;;6301038;28;20052;-80
2023/07/20 10:42:16;;;;;;;10.88;6.22;;;;;;;;;;6301685;28;20233;-80
2023/07/20 10:45:18;;;;;;;8.05;5.47;;;;;;;;;;6301524;28;20061;-79
2023/07/20 10:48:20;;;;;;;15.30;6.38;;;;;;;;;;6300305;28;20056;-80
2023/07/20 10:51:21;;;;;;;11.15;6.03;;;;;;;;;;6299702;28;20045;-79
2023/07/20 10:54:48;;;;;;;9.77;6.55;;;;;;;;;;6300471;28;20236;-80
2023/07/20 10:58:06;;;;;;;9.68;5.68;;;;;;;;;;6302035;28;20084;-80
2023/07/20 11:01:07;;;;;;;10.40;6.18;;;;;;;;;;6299644;28;20206;-80
2023/07/20 11:04:09;;;;;;;10.13;6.10;;;;;;;;;;6300792;28;20048;-79
2023/07/20 11:07:11;;;;;;;10.93;7.05;;;;;;;;;;6297302;28;20052;-80
2023/07/20 11:10:18;;;;;;;12.27;5.10;;;;;;;;;;6298975;28;20139;-79
2023/07/20 11:13:21;;;;;;;18.63;6.80;;;;;;;;;;6299671;28;20093;-79
2023/07/20 11:16:32;;;;;;;12.48;6.57;;;;;;;;;;6302398;28;20123;-80
2023/07/20 11:19:34;;;;;;;9.75;5.95;;;;;;;;;;6297131;28;20060;-80
2023/07/20 11:22:35;;;;;;;10.15;5.75;;;;;;;;;;6299524;28;20099;-78
2023/07/20 11:25:39;;;;;;;12.18;5.65;;;;;;;;;;6299664;28;20222;-80
2023/07/20 11:28:40;;;;;;;9.98;6.10;;;;;;;;;;6298388;28;20060;-77
2023/07/20 11:31:43;;;;;;;12.07;5.90;;;;;;;;;;6297817;28;20048;-80
2023/07/20 11:34:47;;;;;;;11.40;5.85;;;;;;;;;;6299732;28;20075;-80
2023/07/20 11:37:49;;;;;;;8.23;5.40;;;;;;;;;;6301331;28;20151;-81
2023/07/20 11:40:52;;;;;;;10.02;5.80;;;;;;;;;;6300239;28;20202;-79
2023/07/20 11:43:53;;;;;;;7.93;5.10;;;;;;;;;;6300209;28;20147;-80
2023/07/20 11:47:01;;;;;;;9.13;6.28;;;;;;;;;;6299148;28;20110;-80
2023/07/20 11:50:03;;;;;;;8.63;5.38;;;;;;;;;;6299599;28;20158;-79
2023/07/20 11:53:05;;;;;;;9.68;5.70;;;;;;;;;;6298854;28;20248;-79
2023/07/20 11:56:08;;;;;;;7.35;5.45;;;;;;;;;;6300028;28;20260;-79
2023/07/20 11:59:10;;;;;;;9.20;4.88;;;;;;;;;;6298966;28;20945;-80
2023/07/20 12:02:12;;;;;;;8.85;5.13;;;;;;;;;;6300316;28;20048;-79
2023/07/20 12:05:14;;;;;;;8.48;5.80;;;;;;;;;;6300164;28;20056;-79
2023/07/20 12:08:15;;;;;;;10.07;5.30;;;;;;;;;;6299565;28;20040;-79
2023/07/20 12:11:32;;;;;;;11.45;5.20;;;;;;;;;;6300014;28;20044;-79
2023/07/20 12:14:34;;;;;;;9.40;4.93;;;;;;;;;;6299901;28;20056;-80
2023/07/20 12:17:35;;;;;;;9.43;5.05;;;;;;;;;;6300094;28;20052;-79
2023/07/20 12:20:37;;;;;;;5.82;5.13;;;;;;;;;;6299826;28;20052;-79
2023/07/20 12:23:40;;;;;;;9.32;4.47;;;;;;;;;;6295694;28;20366;-79
2023/07/20 12:26:43;;;;;;;6.95;4.80;;;;;;;;;;6298323;28;20048;-79
2023/07/20 12:29:45;;;;;;;8.68;4.97;;;;;;;;;;6298077;28;20056;-80
2023/07/20 12:32:46;;;;;;;10.70;5.22;;;;;;;;;;6300901;28;20062;-80
2023/07/20 12:35:48;;;;;;;13.00;5.72;;;;;;;;;;6299880;28;20064;-79
2023/07/20 12:38:49;;;;;;;15.43;4.60;;;;;;;;;;6297636;28;20057;-79
2023/07/20 12:41:50;;;;;;;;;;;;;;;;;;6300637;28;20057;-79
2023/07/20 12:44:53;;;;;;;9.77;5.38;;;;;;;;;;6296801;28;19939;-80
2023/07/20 12:47:55;;;;;;;9.60;4.75;;;;;;;;;;6298236;28;20060;-79
2023/07/20 12:50:56;;;;;;;9.18;5.70;;;;;;;;;;6298832;28;20053;-82
2023/07/20 12:53:58;;;;;;;7.07;4.68;;;;;;;;;;6298448;28;20047;-81
2023/07/20 12:56:59;;;;;;;10.05;4.85;;;;;;;;;;6297496;28;20056;-80
2023/07/20 13:00:01;;;;;;;;;;;;;;;;;;6300083;28;20344;-80
2023/07/20 13:03:04;;;;;;;12.20;5.53;;;;;;;;;;6297989;28;19991;-81
2023/07/20 13:06:06;;;;;;;6.28;3.97;;;;;;;;;;6299300;28;20048;-80
2023/07/20 13:09:08;;;;;;;6.68;4.28;;;;;;;;;;6297281;28;20048;-82
2023/07/20 13:12:09;;;;;;;12.15;4.63;;;;;;;;;;6299540;28;20053;-81
2023/07/20 13:15:11;;;;;;;9.25;5.25;;;;;;;;;;6300526;28;20059;-81
2023/07/20 13:18:14;;;;;;;10.02;4.82;;;;;;;;;;6297987;28;20620;-81
2023/07/20 13:21:15;;;;;;;6.40;4.25;;;;;;;;;;6297291;28;20052;-82
2023/07/20 13:24:17;;;;;;;;;;;;;;;;;;6298663;28;20057;-81
2023/07/20 13:27:18;;;;;;;9.93;4.40;;;;;;;;;;6297939;28;19927;-81
2023/07/20 13:30:21;;;;;;;9.43;4.35;;;;;;;;;;6298297;28;20048;-77
2023/07/20 13:33:24;;;;;;;10.38;4.18;;;;;;;;;;6303056;28;20048;-78
2023/07/20 13:36:25;;;;;;;9.45;4.22;;;;;;;;;;6303675;28;20098;-81
2023/07/20 13:39:27;;;;;;;;;;;;;;;;;;6304677;28;20071;-80
2023/07/20 13:42:28;;;;;;;;;;;;;;;;;;6304421;28;19936;-80
2023/07/20 13:45:30;;;;;;;7.38;4.30;;;;;;;;;;6301248;28;19959;-79
2023/07/20 13:48:33;;;;;;;9.63;4.53;;;;;;;;;;6302613;28;20055;-81
2023/07/20 13:51:34;;;;;;;11.55;4.80;;;;;;;;;;6302791;28;20126;-79
2023/07/20 13:54:36;;;;;;;7.18;4.50;;;;;;;;;;6301424;28;20060;-80
2023/07/20 13:57:37;;;;;;;8.00;4.30;;;;;;;;;;6303116;28;20331;-80
2023/07/20 14:00:39;;;;;;;8.77;4.75;;;;;;;;;;6301377;28;20057;-80
2023/07/20 14:03:40;;;;;;;;;;;;;;;;;;6303317;28;20044;-80
2023/07/20 14:06:43;;;;;;;8.77;4.60;;;;;;;;;;6304016;28;19935;-80
2023/07/20 14:09:45;;;;;;;9.65;5.10;;;;;;;;;;6302048;28;20060;-80
2023/07/20 14:12:46;;;;;;;7.20;4.70;;;;;;;;;;6301140;28;20060;-80
2023/07/20 14:15:50;;;;;;;7.35;4.85;;;;;;;;;;6302636;28;20226;-77
2023/07/20 14:18:51;;;;;;;5.13;3.78;;;;;;;;;;6301240;28;20303;-79
2023/07/20 14:21:54;;;;;;;9.20;4.93;;;;;;;;;;6302989;28;20052;-78
2023/07/20 14:24:56;;;;;;;6.60;4.47;;;;;;;;;;6303995;28;20355;-79
2023/07/20 14:27:57;;;;;;;;;;;;;;;;;;6302725;28;20090;-77
2023/07/20 14:30:59;;;;;;;8.35;4.43;;;;;;;;;;6301718;28;19962;-80
2023/07/20 14:34:00;;;;;;;5.25;4.40;;;;;;;;;;6303043;28;20091;-78
2023/07/20 14:37:04;;;;;;;9.90;4.70;;;;;;;;;;6301461;28;20051;-78
2023/07/20 14:40:07;;;;;;;10.52;5.57;;;;;;;;;;6301036;28;20071;-78
2023/07/20 14:43:08;;;;;;;8.32;4.78;;;;;;;;;;6301834;28;20113;-79
2023/07/20 14:46:10;;;;;;;8.20;4.88;;;;;;;;;;6299984;28;20049;-79
2023/07/20 14:49:11;;;;;;;13.57;6.45;;;;;;;;;;6300213;28;20057;-79
2023/07/20 14:52:13;;;;;;;;;;;;;;;;;;6300774;28;20107;-80
2023/07/20 14:55:16;;;;;;;9.00;4.60;;;;;;;;;;6300536;28;19929;-78
2023/07/20 14:58:18;;;;;;;11.45;4.30;;;;;;;;;;6302592;28;20328;-78
2023/07/20 15:01:19;;;;;;;7.88;4.53;;;;;;;;;;6299401;28;20052;-79
2023/07/20 15:04:21;;;;;;;8.75;4.40;;;;;;;;;;6300431;28;20036;-79
2023/07/20 15:07:23;;;;;;;10.50;4.90;;;;;;;;;;6300586;28;20053;-78
2023/07/20 15:10:26;;;;;;;11.63;4.22;;;;;;;;;;6300461;28;20244;-79
2023/07/20 15:13:27;;;;;;;10.82;4.53;;;;;;;;;;6299823;28;20056;-79
2023/07/20 15:16:29;;;;;;;10.32;4.43;;;;;;;;;;6303284;28;20044;-79
2023/07/20 15:19:30;;;;;;;7.35;4.50;;;;;;;;;;6300226;28;20336;-79
2023/07/20 15:22:32;;;;;;;11.07;4.45;;;;;;;;;;6299563;28;20061;-78
2023/07/20 15:25:34;;;;;;;8.07;4.55;;;;;;;;;;6299810;28;20117;-77
2023/07/20 15:28:36;;;;;;;7.28;4.35;;;;;;;;;;6301458;28;20355;-78
2023/07/20 15:31:37;;;;;;;6.30;4.10;;;;;;;;;;6300399;28;20060;-79
2023/07/20 15:34:39;;;;;;;11.50;4.40;;;;;;;;;;6300169;28;21348;-78
2023/07/20 15:37:40;;;;;;;9.43;4.00;;;;;;;;;;6299063;28;20045;-77
2023/07/20 15:40:45;;;;;;;9.63;4.33;;;;;;;;;;6297584;28;20040;-75
2023/07/20 15:43:47;;;;;;;9.48;4.43;;;;;;;;;;6300613;28;20052;-79
2023/07/20 15:46:49;;;;;;;8.02;4.30;;;;;;;;;;6298574;28;20060;-78
2023/07/20 15:49:50;;;;;;;;;;;;;;;;;;6298605;28;20045;-78
2023/07/20 15:52:52;;;;;;;11.18;4.60;;;;;;;;;;6298627;28;21528;-79
2023/07/20 15:55:56;;;;;;;9.63;4.80;;;;;;;;;;6295315;28;20344;-78
2023/07/20 15:58:57;;;;;;;7.57;4.15;;;;;;;;;;6297225;28;20059;-78
2023/07/20 16:01:59;;;;;;;7.27;4.27;;;;;;;;;;6298791;28;20048;-78
2023/07/20 16:05:00;;;;;;;10.57;4.05;;;;;;;;;;6299496;28;20052;-77
2023/07/20 16:08:02;;;;;;;11.90;4.53;;;;;;;;;;6299203;28;20056;-79
2023/07/20 16:11:04;;;;;;;7.38;4.15;;;;;;;;;;6298770;28;20052;-80
2023/07/20 16:14:07;;;;;;;9.77;4.20;;;;;;;;;;6298900;28;20059;-78
2023/07/20 16:17:08;;;;;;;;;;;;;;;;;;6299584;28;20087;-79
2023/07/20 16:20:10;;;;;;;6.70;4.03;;;;;;;;;;6299556;28;19931;-78
2023/07/20 16:23:12;;;;;;;6.53;3.88;;;;;;;;;;6298576;28;20108;-78
2023/07/20 16:26:15;;;;;;;7.68;4.28;;;;;;;;;;6299993;28;20056;-79
2023/07/20 16:29:16;;;;;;;8.75;4.55;;;;;;;;;;6296875;28;20052;-78
2023/07/20 16:32:17;;;;;;;8.18;4.18;;;;;;;;;;6300243;28;20056;-79
2023/07/20 16:35:19;;;;;;;13.47;4.10;;;;;;;;;;6298853;28;20107;-78
2023/07/20 16:38:22;;;;;;;6.25;4.35;;;;;;;;;;6297769;28;20067;-78
2023/07/20 16:41:25;;;;;;;8.07;4.80;;;;;;;;;;6298322;28;20040;-78
2023/07/20 16:44:26;;;;;;;8.40;4.10;;;;;;;;;;6298097;28;20064;-79
2023/07/20 16:47:28;;;;;;;7.95;3.97;;;;;;;;;;6299277;28;20055;-79
2023/07/20 16:50:29;;;;;;;10.13;4.30;;;;;;;;;;6299757;28;20090;-79
2023/07/20 16:53:31;;;;;;;9.70;4.43;;;;;;;;;;6298088;28;20058;-78
2023/07/20 16:56:34;;;;;;;10.93;4.63;;;;;;;;;;6301268;28;20044;-78
2023/07/20 16:59:35;;;;;;;9.10;3.72;;;;;;;;;;6298524;28;20340;-79
2023/07/20 17:02:37;;;;;;;8.63;4.00;;;;;;;;;;6298157;28;20045;-79
2023/07/20 17:05:39;;;;;;;10.23;4.20;;;;;;;;;;6298129;28;20398;-77
2023/07/20 17:08:40;;;;;;;9.45;4.30;;;;;;;;;;6302061;28;20057;-77
2023/07/20 17:11:43;;;;;;;6.30;4.25;;;;;;;;;;6302813;28;20048;-78
2023/07/20 17:14:45;;;;;;;10.93;5.03;;;;;;;;;;6303258;28;20057;-77
2023/07/20 17:17:46;;;;;;;11.45;5.22;;;;;;;;;;6304094;28;20051;-78
2023/07/20 17:20:48;;;;;;;9.23;4.60;;;;;;;;;;6303725;28;20063;-77
2023/07/20 17:23:50;;;;;;;11.13;5.20;;;;;;;;;;6301780;28;20221;-77
2023/07/20 17:26:53;;;;;;;11.63;4.73;;;;;;;;;;6302840;28;20052;-78
2023/07/20 17:29:58;;;;;;;15.15;5.13;;;;;;;;;;6303211;28;20474;-78
2023/07/20 17:33:00;;;;;;;7.18;4.18;;;;;;;;;;6302993;28;20063;-76
2023/07/20 17:36:01;;;;;;;9.85;5.50;;;;;;;;;;6302288;28;20052;-77
2023/07/20 17:39:03;;;;;;;12.00;5.35;;;;;;;;;;6301025;28;20239;-77
2023/07/20 17:42:06;;;;;;;8.95;5.38;;;;;;;;;;6301908;28;20056;-77
2023/07/20 17:45:08;;;;;;;10.68;5.00;;;;;;;;;;6301208;28;20053;-77
2023/07/20 17:48:10;;;;;;;10.90;5.18;;;;;;;;;;6303577;28;20316;-77
2023/07/20 17:51:11;;;;;;;12.18;5.03;;;;;;;;;;6301353;28;21950;-77
2023/07/20 17:54:13;;;;;;;9.38;5.05;;;;;;;;;;6302698;28;20052;-77
2023/07/20 17:57:16;;;;;;;10.75;5.03;;;;;;;;;;6302987;28;20054;-77
2023/07/20 18:00:18;;;;;;;6.22;4.82;;;;;;;;;;6303745;28;20075;-77
2023/07/20 18:03:19;;;;;;;14.13;5.28;;;;;;;;;;6302025;28;20044;-78
2023/07/20 18:06:21;;;;;;;9.23;5.07;;;;;;;;;;6302323;28;20066;-76